Sandy Hook, Connecticut
Current Conditions -  °F | °C
As of 12:55 AM on Friday 31 Oct 2014 (Local Time) from KOXC Reporting Station
Overcast Overcast  
Wind Chill:   Ceiling: 4600
Heat Index:   Visibility: 10mi
Dew Point: -1°   Wind: 7mph
Humidity: 65%   Direction: 350°N
Pressure: 30.03"   Gusts: NA
Location:  41.42°N, 73.28°W
Report Text: KOXC 310455Z 35006KT 10SM OVC046 05/M01 A3003 RMK AO1
Loading
Personal Weather Stations






























Interactive Weather Map
Tropical Storm Tracking
New forecast layout! Learn more

10-Day Weather Forecast

Advertisements
Track Severe Weather on mobile